Time;durP1;ratioP1;P1;durP2;ratioP2;P2;SDS_P1;SDS_P2;PMS_P1;PMS_P2;Temp;Humidity;BMP_temperature;BMP_pressure;BME280_temperature;BME280_humidity;BME280_pressure;Samples;Min_cycle;Max_cycle;Signal;HPM_P1;HPM_P2
2023/05/21 00:01:39;;;;;;;2.83;1.50;;;;;;;;;;5075805;28;20131;-69
2023/05/21 00:04:06;;;;;;;1.83;1.20;;;;;;;;;;5109693;27;20056;-70
2023/05/21 00:06:34;;;;;;;4.57;1.60;;;;;;;;;;5079299;28;20060;-70
2023/05/21 00:09:01;;;;;;;2.97;1.58;;;;;;;;;;5058660;28;20087;-70
2023/05/21 00:11:29;;;;;;;3.42;1.60;;;;;;;;;;5109415;28;20056;-70
2023/05/21 00:13:56;;;;;;;3.75;1.30;;;;;;;;;;5062074;28;20048;-71
2023/05/21 00:16:22;;;;;;;4.43;1.75;;;;;;;;;;5063674;28;20055;-70
2023/05/21 00:18:49;;;;;;;2.22;1.45;;;;;;;;;;5051614;28;20049;-70
2023/05/21 00:21:16;;;;;;;3.00;1.67;;;;;;;;;;5047650;28;20071;-70
2023/05/21 00:23:44;;;;;;;4.25;1.83;;;;;;;;;;5051043;28;20137;-70
2023/05/21 00:26:10;;;;;;;8.98;1.73;;;;;;;;;;5054937;28;20072;-70
2023/05/21 00:28:39;;;;;;;3.38;1.80;;;;;;;;;;5055815;28;20064;-70
2023/05/21 00:31:06;;;;;;;3.45;1.52;;;;;;;;;;5059325;28;20072;-70
2023/05/21 00:33:32;;;;;;;3.22;1.48;;;;;;;;;;5059595;28;20080;-70
2023/05/21 00:36:00;;;;;;;3.55;1.63;;;;;;;;;;5052255;28;20057;-70
2023/05/21 00:38:27;;;;;;;2.60;1.48;;;;;;;;;;5048806;28;20053;-70
2023/05/21 00:40:54;;;;;;;4.88;1.60;;;;;;;;;;5035728;28;20056;-70
2023/05/21 00:43:24;;;;;;;7.88;1.55;;;;;;;;;;5038377;28;20125;-70
2023/05/21 00:45:55;;;;;;;6.63;1.58;;;;;;;;;;5034724;28;20053;-70
2023/05/21 00:48:22;;;;;;;5.47;1.90;;;;;;;;;;5031869;28;20056;-70
2023/05/21 00:50:49;;;;;;;5.43;1.60;;;;;;;;;;5033929;28;20049;-70
2023/05/21 00:53:18;;;;;;;3.13;1.40;;;;;;;;;;5038781;28;20057;-70
2023/05/21 00:55:44;;;;;;;4.75;1.50;;;;;;;;;;5035941;28;20053;-70
2023/05/21 00:58:11;;;;;;;4.38;1.75;;;;;;;;;;5038924;28;20048;-70
2023/05/21 01:00:39;;;;;;;3.03;1.42;;;;;;;;;;5056747;28;20068;-70
2023/05/21 01:03:07;;;;;;;4.00;1.70;;;;;;;;;;5061815;28;20056;-70
2023/05/21 01:05:33;;;;;;;3.50;1.42;;;;;;;;;;5058856;28;20097;-70
2023/05/21 01:08:00;;;;;;;3.85;1.70;;;;;;;;;;5052938;28;20055;-70
2023/05/21 01:10:27;;;;;;;4.55;1.70;;;;;;;;;;5065020;28;20095;-69
2023/05/21 01:12:56;;;;;;;5.07;1.58;;;;;;;;;;5061126;28;20047;-69
2023/05/21 01:15:23;;;;;;;3.47;1.55;;;;;;;;;;5062282;28;20058;-69
2023/05/21 01:17:50;;;;;;;4.20;1.60;;;;;;;;;;5054023;28;20372;-69
2023/05/21 01:20:19;;;;;;;4.53;1.70;;;;;;;;;;5058866;28;20139;-70
2023/05/21 01:22:51;;;;;;;3.13;1.60;;;;;;;;;;5056418;28;20047;-69
2023/05/21 01:25:18;;;;;;;3.70;1.90;;;;;;;;;;5061326;28;20052;-70
2023/05/21 01:27:44;;;;;;;5.15;1.90;;;;;;;;;;5057165;28;20059;-69
2023/05/21 01:30:12;;;;;;;5.18;1.80;;;;;;;;;;5058724;28;20105;-70
2023/05/21 01:32:42;;;;;;;3.47;1.88;;;;;;;;;;5058361;28;20107;-69
2023/05/21 01:35:10;;;;;;;3.88;1.92;;;;;;;;;;5062446;28;20059;-72
2023/05/21 01:37:40;;;;;;;5.05;1.60;;;;;;;;;;5053935;28;20143;-71
2023/05/21 01:40:11;;;;;;;3.85;1.85;;;;;;;;;;5052402;28;20055;-72
2023/05/21 01:42:39;;;;;;;4.43;1.80;;;;;;;;;;5056486;28;20051;-71
2023/05/21 01:45:07;;;;;;;3.08;1.70;;;;;;;;;;5060903;28;20063;-72
2023/05/21 01:47:36;;;;;;;5.43;2.03;;;;;;;;;;5066486;28;20064;-72
2023/05/21 01:50:03;;;;;;;4.20;1.50;;;;;;;;;;5053368;28;20056;-72
2023/05/21 01:52:30;;;;;;;4.70;1.80;;;;;;;;;;5055899;28;20048;-71
2023/05/21 01:54:56;;;;;;;3.88;1.90;;;;;;;;;;5061929;28;20051;-71
2023/05/21 01:57:25;;;;;;;3.83;1.85;;;;;;;;;;5052518;28;20047;-71
2023/05/21 01:59:53;;;;;;;4.05;1.70;;;;;;;;;;5078008;28;20055;-71
2023/05/21 02:02:20;;;;;;;4.32;2.00;;;;;;;;;;5071049;28;20131;-72
2023/05/21 02:04:48;;;;;;;4.53;2.13;;;;;;;;;;5037652;28;20083;-71
2023/05/21 02:07:15;;;;;;;2.92;1.75;;;;;;;;;;5050939;28;20078;-71
2023/05/21 02:09:41;;;;;;;5.72;2.00;;;;;;;;;;5052731;28;20084;-70
2023/05/21 02:12:08;;;;;;;3.85;1.85;;;;;;;;;;5057870;28;20139;-69
2023/05/21 02:14:37;;;;;;;4.57;1.98;;;;;;;;;;5050132;28;20052;-70
2023/05/21 02:17:03;;;;;;;;;;;;;;;;;;5055575;28;20056;-70
2023/05/21 02:19:30;;;;;;;3.72;1.85;;;;;;;;;;5048398;28;19935;-70
2023/05/21 02:21:56;;;;;;;5.38;1.65;;;;;;;;;;5056760;28;20056;-70
2023/05/21 02:24:23;;;;;;;4.65;1.92;;;;;;;;;;5050870;28;20055;-70
2023/05/21 02:26:50;;;;;;;3.75;1.75;;;;;;;;;;5056702;28;20064;-70
2023/05/21 02:29:16;;;;;;;2.75;1.67;;;;;;;;;;5045580;28;20040;-70
2023/05/21 02:36:54;;;;;;;3.97;1.70;;;;;;;;;;5253331;22;20068;-70
2023/05/21 02:39:21;;;;;;;3.63;1.80;;;;;;;;;;4969230;28;20123;-70
2023/05/21 02:41:48;;;;;;;2.65;1.60;;;;;;;;;;4976739;28;20137;-70
2023/05/21 02:44:15;;;;;;;5.10;2.05;;;;;;;;;;4975512;28;20095;-70
2023/05/21 02:46:42;;;;;;;6.40;2.00;;;;;;;;;;4975597;28;20169;-69
2023/05/21 02:49:10;;;;;;;3.75;1.80;;;;;;;;;;4987366;28;20041;-70
2023/05/21 02:51:37;;;;;;;4.15;1.77;;;;;;;;;;4969175;28;20049;-69
2023/05/21 02:54:05;;;;;;;3.33;1.85;;;;;;;;;;4975347;28;20042;-70
2023/05/21 02:56:32;;;;;;;3.45;1.88;;;;;;;;;;4973945;28;20103;-73
2023/05/21 02:59:06;;;;;;;4.13;2.10;;;;;;;;;;4959445;28;20120;-72
2023/05/21 03:01:33;;;;;;;4.28;1.98;;;;;;;;;;4956580;28;20174;-71
2023/05/21 03:03:59;;;;;;;7.82;2.30;;;;;;;;;;4971459;28;20050;-71
2023/05/21 03:06:26;;;;;;;3.97;1.83;;;;;;;;;;4977635;28;20058;-72
2023/05/21 03:08:52;;;;;;;5.10;2.20;;;;;;;;;;4974689;28;20058;-71
2023/05/21 03:11:21;;;;;;;5.68;2.05;;;;;;;;;;4973189;28;20046;-70
2023/05/21 03:13:48;;;;;;;4.88;2.22;;;;;;;;;;4973351;28;20133;-70
2023/05/21 03:16:14;;;;;;;3.63;2.03;;;;;;;;;;4975824;28;20049;-70
2023/05/21 03:18:42;;;;;;;4.05;1.75;;;;;;;;;;4975635;28;20062;-70
2023/05/21 03:21:12;;;;;;;4.97;2.10;;;;;;;;;;4978177;28;20045;-71
2023/05/21 03:23:39;;;;;;;5.20;2.35;;;;;;;;;;4981013;28;20074;-70
2023/05/21 03:26:06;;;;;;;7.82;2.33;;;;;;;;;;4974436;28;20057;-69
2023/05/21 03:28:34;;;;;;;4.85;2.03;;;;;;;;;;4977341;28;20145;-70
2023/05/21 03:31:02;;;;;;;3.72;1.90;;;;;;;;;;4973790;28;20049;-69
2023/05/21 03:33:29;;;;;;;4.80;2.20;;;;;;;;;;4988024;28;20041;-71
2023/05/21 03:35:55;;;;;;;4.22;2.15;;;;;;;;;;4974469;28;20057;-70
2023/05/21 03:38:22;;;;;;;6.60;2.33;;;;;;;;;;4980121;28;20058;-69
2023/05/21 03:40:48;;;;;;;4.60;2.00;;;;;;;;;;4979124;28;20054;-70
2023/05/21 03:43:15;;;;;;;4.35;2.05;;;;;;;;;;4965445;28;20042;-70
2023/05/21 03:45:43;;;;;;;3.50;1.88;;;;;;;;;;4969284;28;20050;-70
2023/05/21 03:48:10;;;;;;;4.32;2.10;;;;;;;;;;4973278;28;20054;-70
2023/05/21 03:50:37;;;;;;;4.72;2.30;;;;;;;;;;4982093;28;20057;-70
2023/05/21 03:53:03;;;;;;;5.15;2.33;;;;;;;;;;4983510;28;20124;-70
2023/05/21 03:55:30;;;;;;;5.38;1.98;;;;;;;;;;4996745;28;20053;-70
2023/05/21 03:57:57;;;;;;;4.32;2.13;;;;;;;;;;4997718;28;20053;-71
2023/05/21 04:00:23;;;;;;;5.18;2.20;;;;;;;;;;5001365;28;20057;-71
2023/05/21 04:02:51;;;;;;;5.32;2.35;;;;;;;;;;4997947;28;20077;-70
2023/05/21 04:05:18;;;;;;;4.53;2.20;;;;;;;;;;4989377;28;20049;-70
2023/05/21 04:07:46;;;;;;;7.25;2.20;;;;;;;;;;4987496;28;20046;-71
2023/05/21 04:10:13;;;;;;;4.70;2.07;;;;;;;;;;4983261;28;20049;-70
2023/05/21 04:12:39;;;;;;;5.07;2.28;;;;;;;;;;4981249;28;20567;-71
2023/05/21 04:15:07;;;;;;;5.47;2.20;;;;;;;;;;4989915;28;20053;-71
2023/05/21 04:17:36;;;;;;;4.07;2.00;;;;;;;;;;5000660;28;20037;-71
2023/05/21 04:20:05;;;;;;;9.02;2.65;;;;;;;;;;4996612;28;20057;-70
2023/05/21 04:22:34;;;;;;;4.70;2.40;;;;;;;;;;5000910;28;20049;-71
2023/05/21 04:25:04;;;;;;;4.15;2.10;;;;;;;;;;4994712;28;20113;-71
2023/05/21 04:27:31;;;;;;;4.93;2.30;;;;;;;;;;4996802;28;20050;-70
2023/05/21 04:29:58;;;;;;;4.60;2.13;;;;;;;;;;4997425;28;20072;-70
2023/05/21 04:32:24;;;;;;;5.40;2.20;;;;;;;;;;4990151;28;20049;-71
2023/05/21 04:34:51;;;;;;;4.60;2.30;;;;;;;;;;4994093;28;20057;-71
2023/05/21 04:37:19;;;;;;;4.90;2.45;;;;;;;;;;4995663;28;20064;-70
2023/05/21 04:39:46;;;;;;;5.13;2.33;;;;;;;;;;4997370;28;20117;-70
2023/05/21 04:42:13;;;;;;;4.40;2.30;;;;;;;;;;5004779;28;20076;-71
2023/05/21 04:44:40;;;;;;;4.97;2.15;;;;;;;;;;4993592;28;20052;-71
2023/05/21 04:47:07;;;;;;;7.13;2.42;;;;;;;;;;4978043;28;20149;-71
2023/05/21 04:49:34;;;;;;;5.25;2.22;;;;;;;;;;4975967;28;20049;-71
2023/05/21 04:52:00;;;;;;;5.65;2.15;;;;;;;;;;5000870;28;20056;-70
2023/05/21 04:54:29;;;;;;;6.50;2.67;;;;;;;;;;4987070;28;20056;-70
2023/05/21 04:56:56;;;;;;;6.57;2.20;;;;;;;;;;4997503;28;20049;-69
2023/05/21 04:59:23;;;;;;;7.00;2.40;;;;;;;;;;4993907;28;20060;-70
2023/05/21 05:01:50;;;;;;;4.45;2.13;;;;;;;;;;4995250;28;20063;-70
2023/05/21 05:04:16;;;;;;;5.53;2.15;;;;;;;;;;4995808;28;20132;-70
2023/05/21 05:06:43;;;;;;;4.57;2.30;;;;;;;;;;4992622;28;20061;-70
2023/05/21 05:09:10;;;;;;;5.18;2.25;;;;;;;;;;4971935;28;20050;-70
2023/05/21 05:11:38;;;;;;;5.43;2.33;;;;;;;;;;4988084;28;20059;-70
2023/05/21 05:14:05;;;;;;;5.20;2.47;;;;;;;;;;4977258;28;20046;-70
2023/05/21 05:16:32;;;;;;;3.63;2.00;;;;;;;;;;4987988;28;20037;-70
2023/05/21 05:18:59;;;;;;;4.72;2.22;;;;;;;;;;5001324;28;20053;-70
2023/05/21 05:21:26;;;;;;;6.57;2.35;;;;;;;;;;4991317;28;20056;-70
2023/05/21 05:23:52;;;;;;;4.15;2.22;;;;;;;;;;4995583;28;20065;-70
2023/05/21 05:26:20;;;;;;;4.07;2.10;;;;;;;;;;4995105;28;20176;-71
2023/05/21 05:28:49;;;;;;;6.85;2.10;;;;;;;;;;5001702;28;20135;-70
2023/05/21 05:31:18;;;;;;;6.25;2.50;;;;;;;;;;4989754;28;20053;-71
2023/05/21 05:33:46;;;;;;;5.05;2.25;;;;;;;;;;4983983;28;20140;-71
2023/05/21 05:36:13;;;;;;;4.68;2.35;;;;;;;;;;4978886;28;20103;-71
2023/05/21 05:38:40;;;;;;;4.65;2.10;;;;;;;;;;4999365;28;20050;-70
2023/05/21 05:41:06;;;;;;;4.60;2.20;;;;;;;;;;4994584;28;20255;-71
2023/05/21 05:43:33;;;;;;;4.65;2.30;;;;;;;;;;4995559;28;20180;-72
2023/05/21 05:46:01;;;;;;;5.70;2.50;;;;;;;;;;4991247;28;20180;-71
2023/05/21 05:48:27;;;;;;;4.90;2.22;;;;;;;;;;4990999;28;20061;-71
2023/05/21 05:50:55;;;;;;;4.82;2.55;;;;;;;;;;5000505;28;20046;-70
2023/05/21 05:53:22;;;;;;;5.80;2.30;;;;;;;;;;4987900;28;20186;-71
2023/05/21 05:55:49;;;;;;;3.92;2.20;;;;;;;;;;4997418;28;20143;-71
2023/05/21 05:58:16;;;;;;;5.38;2.40;;;;;;;;;;4995475;28;20132;-71
2023/05/21 06:00:42;;;;;;;8.43;2.58;;;;;;;;;;4998483;28;20049;-71
2023/05/21 06:03:12;;;;;;;4.22;2.42;;;;;;;;;;4989366;28;20050;-71
2023/05/21 06:05:38;;;;;;;6.85;2.30;;;;;;;;;;4984705;28;20224;-70
2023/05/21 06:08:05;;;;;;;5.43;2.25;;;;;;;;;;4981221;28;20548;-70
2023/05/21 06:10:32;;;;;;;7.22;2.47;;;;;;;;;;4971134;28;20054;-70
2023/05/21 06:12:58;;;;;;;5.22;2.22;;;;;;;;;;4979399;28;20052;-70
2023/05/21 06:15:25;;;;;;;4.50;2.35;;;;;;;;;;4988187;28;20144;-70
2023/05/21 06:17:51;;;;;;;6.93;2.70;;;;;;;;;;4996138;28;20050;-70
2023/05/21 06:20:19;;;;;;;4.88;2.28;;;;;;;;;;5003334;28;20060;-70
2023/05/21 06:22:46;;;;;;;4.30;2.35;;;;;;;;;;5001555;28;20048;-73
2023/05/21 06:25:13;;;;;;;6.93;2.75;;;;;;;;;;4987995;28;20057;-70
2023/05/21 06:27:39;;;;;;;4.97;2.40;;;;;;;;;;5019563;28;20092;-71
2023/05/21 06:30:07;;;;;;;8.32;2.70;;;;;;;;;;4987782;28;20073;-71
2023/05/21 06:32:33;;;;;;;5.65;2.58;;;;;;;;;;4980906;28;20061;-71
2023/05/21 06:35:02;;;;;;;6.20;2.50;;;;;;;;;;4991779;28;20052;-71
2023/05/21 06:37:30;;;;;;;6.95;2.67;;;;;;;;;;4995615;28;20093;-70
2023/05/21 06:39:56;;;;;;;5.18;2.30;;;;;;;;;;4995145;28;20053;-70
2023/05/21 06:42:23;;;;;;;7.75;2.72;;;;;;;;;;4998246;28;20058;-70
2023/05/21 06:44:50;;;;;;;6.72;2.70;;;;;;;;;;4989063;28;20057;-70
2023/05/21 06:47:17;;;;;;;6.93;2.38;;;;;;;;;;4970895;28;20053;-73
2023/05/21 06:49:43;;;;;;;4.75;2.30;;;;;;;;;;4980297;28;20053;-73
2023/05/21 06:52:10;;;;;;;5.32;2.55;;;;;;;;;;4997989;28;20053;-73
2023/05/21 06:54:38;;;;;;;5.50;2.38;;;;;;;;;;4993698;28;20113;-73
2023/05/21 06:57:06;;;;;;;4.75;2.42;;;;;;;;;;4998269;28;20056;-73
2023/05/21 06:59:33;;;;;;;4.93;2.35;;;;;;;;;;4973201;28;20042;-72
2023/05/21 07:01:59;;;;;;;5.10;2.60;;;;;;;;;;4973600;28;20093;-72
2023/05/21 07:04:26;;;;;;;4.75;2.70;;;;;;;;;;4972268;28;20077;-71
2023/05/21 07:06:53;;;;;;;6.47;2.90;;;;;;;;;;4971745;28;20155;-71
2023/05/21 07:09:20;;;;;;;5.72;2.80;;;;;;;;;;4963444;28;20050;-71
2023/05/21 07:11:48;;;;;;;5.88;2.60;;;;;;;;;;4969783;28;20085;-71
2023/05/21 07:14:15;;;;;;;5.18;2.40;;;;;;;;;;4968798;28;20054;-71
2023/05/21 07:16:43;;;;;;;6.30;2.70;;;;;;;;;;4975767;28;20050;-71
2023/05/21 07:19:10;;;;;;;9.38;3.10;;;;;;;;;;4968907;28;20129;-71
2023/05/21 07:21:37;;;;;;;8.15;3.05;;;;;;;;;;4968155;28;20051;-71
2023/05/21 07:24:04;;;;;;;6.20;2.50;;;;;;;;;;4965621;28;20077;-71
2023/05/21 07:26:30;;;;;;;7.68;3.17;;;;;;;;;;4974583;28;20058;-71
2023/05/21 07:28:58;;;;;;;6.55;2.53;;;;;;;;;;4970500;28;20062;-71
2023/05/21 07:31:25;;;;;;;5.65;2.47;;;;;;;;;;4963472;28;20277;-73
2023/05/21 07:33:52;;;;;;;5.28;2.80;;;;;;;;;;4975163;28;20077;-73
2023/05/21 07:36:19;;;;;;;5.53;2.80;;;;;;;;;;4971829;28;20137;-71
2023/05/21 07:38:45;;;;;;;6.53;2.80;;;;;;;;;;4980078;28;20052;-72
2023/05/21 07:41:14;;;;;;;5.82;2.85;;;;;;;;;;4968361;28;20361;-71
2023/05/21 07:43:41;;;;;;;7.53;2.83;;;;;;;;;;4966918;28;20054;-70
2023/05/21 07:46:10;;;;;;;7.15;3.00;;;;;;;;;;4962535;28;20057;-72
2023/05/21 07:48:37;;;;;;;5.68;2.70;;;;;;;;;;4976380;28;20057;-71
2023/05/21 07:51:06;;;;;;;6.32;3.47;;;;;;;;;;4976604;28;20069;-72
2023/05/21 07:53:41;;;;;;;7.60;3.22;;;;;;;;;;4994586;28;20145;-70
2023/05/21 07:56:08;;;;;;;6.65;3.33;;;;;;;;;;4974527;28;20057;-72
2023/05/21 07:58:35;;;;;;;9.18;3.15;;;;;;;;;;4976941;28;20058;-71
2023/05/21 08:01:05;;;;;;;6.53;3.00;;;;;;;;;;4977170;28;20057;-72
2023/05/21 08:03:33;;;;;;;5.97;2.75;;;;;;;;;;4974901;28;20053;-72
2023/05/21 08:06:00;;;;;;;4.53;2.50;;;;;;;;;;4964177;28;20124;-71
2023/05/21 08:08:26;;;;;;;8.18;2.75;;;;;;;;;;4969729;28;20061;-72
2023/05/21 08:10:58;;;;;;;6.40;2.80;;;;;;;;;;4966878;28;20065;-72
2023/05/21 08:13:24;;;;;;;7.97;3.13;;;;;;;;;;4966310;28;20053;-71
2023/05/21 08:15:53;;;;;;;4.72;2.70;;;;;;;;;;4971947;28;20054;-71
2023/05/21 08:18:22;;;;;;;11.23;3.28;;;;;;;;;;4974820;28;20060;-72
2023/05/21 08:20:49;;;;;;;;;;;;;;;;;;4980147;28;20045;-71
2023/05/21 08:23:17;;;;;;;6.90;3.13;;;;;;;;;;4970465;28;19949;-71
2023/05/21 08:25:43;;;;;;;6.53;2.92;;;;;;;;;;4972694;28;20061;-71
2023/05/21 08:28:10;;;;;;;7.13;3.35;;;;;;;;;;4965023;28;20050;-71
2023/05/21 08:30:40;;;;;;;7.35;2.88;;;;;;;;;;4976001;28;20061;-72
2023/05/21 08:33:13;;;;;;;7.97;3.20;;;;;;;;;;4972613;28;20054;-72
2023/05/21 08:35:40;;;;;;;6.18;3.20;;;;;;;;;;4959516;28;20113;-71
2023/05/21 08:38:07;;;;;;;5.85;2.95;;;;;;;;;;4981914;28;20089;-72
2023/05/21 08:40:38;;;;;;;9.32;3.63;;;;;;;;;;4998648;28;20140;-72
2023/05/21 08:43:11;;;;;;;7.53;3.40;;;;;;;;;;5003536;28;20119;-72
2023/05/21 08:45:41;;;;;;;7.63;3.58;;;;;;;;;;4989559;28;20073;-80
2023/05/21 08:48:10;;;;;;;11.90;3.72;;;;;;;;;;4985819;28;20056;-73
2023/05/21 08:50:37;;;;;;;12.75;4.20;;;;;;;;;;4999818;28;20089;-76
2023/05/21 08:53:04;;;;;;;10.13;4.07;;;;;;;;;;5002108;28;20053;-76
2023/05/21 08:55:31;;;;;;;10.88;5.00;;;;;;;;;;4991801;28;20053;-72
2023/05/21 08:58:00;;;;;;;9.68;4.70;;;;;;;;;;5005371;28;20073;-75
2023/05/21 09:00:30;;;;;;;10.23;4.55;;;;;;;;;;5018306;28;20144;-73
2023/05/21 09:02:59;;;;;;;18.75;4.70;;;;;;;;;;4987188;28;20054;-74
2023/05/21 09:05:29;;;;;;;10.45;4.35;;;;;;;;;;4956382;28;20464;-74
2023/05/21 09:08:01;;;;;;;11.63;5.07;;;;;;;;;;4987618;28;20054;-73
2023/05/21 09:10:34;;;;;;;16.80;4.97;;;;;;;;;;4976805;28;20060;-73
2023/05/21 09:13:02;;;;;;;19.48;5.22;;;;;;;;;;4989509;28;20081;-75
2023/05/21 09:15:29;;;;;;;30.45;5.72;;;;;;;;;;4968349;28;20051;-78
2023/05/21 09:17:56;;;;;;;40.38;6.55;;;;;;;;;;5002740;28;20053;-71
2023/05/21 09:20:25;;;;;;;25.60;6.70;;;;;;;;;;4998874;28;20144;-73
2023/05/21 09:22:52;;;;;;;23.52;7.28;;;;;;;;;;5007155;28;20053;-66
2023/05/21 09:25:21;;;;;;;23.15;7.38;;;;;;;;;;4990124;28;20112;-72
2023/05/21 09:27:48;;;;;;;19.75;6.88;;;;;;;;;;5002899;28;20073;-72
2023/05/21 09:30:19;;;;;;;15.88;6.53;;;;;;;;;;5000955;28;20141;-66
2023/05/21 09:32:52;;;;;;;20.30;6.65;;;;;;;;;;5016906;28;20151;-73
2023/05/21 09:35:19;;;;;;;18.77;5.13;;;;;;;;;;4972744;28;20060;-75
2023/05/21 09:37:47;;;;;;;10.23;4.95;;;;;;;;;;4951605;28;20054;-75
2023/05/21 09:40:15;;;;;;;19.27;5.78;;;;;;;;;;4964303;28;20058;-70
2023/05/21 09:42:41;;;;;;;14.98;5.10;;;;;;;;;;4943558;28;20067;-75
2023/05/21 09:45:11;;;;;;;13.63;5.32;;;;;;;;;;4937969;28;20069;-74
2023/05/21 09:47:43;;;;;;;14.45;5.00;;;;;;;;;;4945738;28;20117;-71
2023/05/21 09:50:13;;;;;;;18.45;5.53;;;;;;;;;;4941804;28;20086;-71
2023/05/21 09:52:40;;;;;;;11.82;5.00;;;;;;;;;;4954836;28;20053;-71
2023/05/21 09:55:08;;;;;;;13.10;5.00;;;;;;;;;;4955138;28;20062;-71
2023/05/21 09:57:40;;;;;;;18.15;4.90;;;;;;;;;;4942308;28;20062;-71
2023/05/21 10:00:10;;;;;;;12.70;4.93;;;;;;;;;;4942810;28;20062;-71
2023/05/21 10:02:37;;;;;;;14.43;4.80;;;;;;;;;;4941438;28;20087;-70
2023/05/21 10:05:09;;;;;;;15.93;5.13;;;;;;;;;;4937782;28;20054;-73
2023/05/21 10:07:35;;;;;;;13.70;5.50;;;;;;;;;;4958513;28;20061;-70
2023/05/21 10:10:04;;;;;;;20.17;5.30;;;;;;;;;;4948145;28;20059;-74
2023/05/21 10:12:30;;;;;;;18.00;5.50;;;;;;;;;;4949268;28;20051;-69
2023/05/21 10:15:02;;;;;;;12.18;5.60;;;;;;;;;;4940900;28;20059;-71
2023/05/21 10:17:29;;;;;;;25.55;7.25;;;;;;;;;;4936806;28;20487;-71
2023/05/21 10:19:57;;;;;;;13.43;6.07;;;;;;;;;;4941155;28;20061;-71
2023/05/21 10:22:26;;;;;;;18.88;6.90;;;;;;;;;;4941919;28;20081;-76
2023/05/21 10:24:54;;;;;;;17.30;6.30;;;;;;;;;;4940910;28;20150;-70
2023/05/21 10:27:21;;;;;;;33.97;7.63;;;;;;;;;;4944076;28;20097;-70
2023/05/21 10:29:48;;;;;;;46.97;7.45;;;;;;;;;;4942040;28;20161;-71
2023/05/21 10:32:16;;;;;;;37.60;7.97;;;;;;;;;;4944107;28;20090;-71
2023/05/21 10:34:43;;;;;;;20.55;6.75;;;;;;;;;;4951527;28;20065;-71
2023/05/21 10:37:11;;;;;;;24.60;6.80;;;;;;;;;;4973152;28;20061;-72
2023/05/21 10:39:40;;;;;;;21.83;6.70;;;;;;;;;;4992556;28;20053;-71
2023/05/21 10:42:12;;;;;;;29.45;6.80;;;;;;;;;;5000866;28;20054;-70
2023/05/21 10:44:50;;;;;;;27.50;6.97;;;;;;;;;;4992134;28;20064;-70
2023/05/21 10:47:37;;;;;;;23.65;6.85;;;;;;;;;;4953881;28;20136;-70
2023/05/21 10:50:10;;;;;;;16.67;7.07;;;;;;;;;;4947595;28;20061;-70
2023/05/21 10:52:50;;;;;;;19.60;7.75;;;;;;;;;;5016658;28;20075;-71
2023/05/21 10:55:28;;;;;;;20.58;6.22;;;;;;;;;;4987078;28;20060;-71
2023/05/21 10:57:55;;;;;;;;;;;;;;;;;;5003856;28;20127;-69
2023/05/21 11:00:22;;;;;;;37.53;7.68;;;;;;;;;;5001196;28;19925;-72
2023/05/21 11:02:50;;;;;;;19.90;7.38;;;;;;;;;;4993213;28;20049;-70
2023/05/21 11:05:17;;;;;;;17.98;7.32;;;;;;;;;;4978162;28;20057;-70
2023/05/21 11:07:50;;;;;;;19.80;6.28;;;;;;;;;;5000149;28;20053;-70
2023/05/21 11:10:31;;;;;;;15.73;5.43;;;;;;;;;;4985564;28;20164;-70
2023/05/21 11:13:06;;;;;;;12.35;5.97;;;;;;;;;;4981997;28;20054;-71
2023/05/21 11:15:47;;;;;;;21.27;6.90;;;;;;;;;;4986514;28;20061;-75
2023/05/21 11:18:14;;;;;;;14.75;6.65;;;;;;;;;;5000622;28;20256;-71
2023/05/21 11:20:44;;;;;;;12.80;5.95;;;;;;;;;;4995354;28;20186;-71
2023/05/21 11:23:11;;;;;;;16.30;6.35;;;;;;;;;;4995271;28;20063;-71
2023/05/21 11:25:39;;;;;;;22.85;6.63;;;;;;;;;;4987868;28;20058;-70
2023/05/21 11:28:08;;;;;;;13.20;6.03;;;;;;;;;;4983708;28;20061;-70
2023/05/21 11:30:34;;;;;;;18.35;5.18;;;;;;;;;;4981995;28;20158;-70
2023/05/21 11:33:19;;;;;;;12.73;4.95;;;;;;;;;;4993680;28;20056;-70
2023/05/21 11:35:59;;;;;;;17.47;8.77;;;;;;;;;;4977498;28;20053;-70
2023/05/21 11:38:28;;;;;;;24.92;6.32;;;;;;;;;;5000412;28;20107;-71
2023/05/21 11:41:01;;;;;;;16.40;7.95;;;;;;;;;;4994623;28;20073;-69
2023/05/21 11:43:28;;;;;;;19.38;6.47;;;;;;;;;;4984901;28;20123;-71
2023/05/21 11:45:55;;;;;;;18.23;6.50;;;;;;;;;;4969728;28;20068;-71
2023/05/21 11:48:28;;;;;;;12.88;5.82;;;;;;;;;;5001326;28;20071;-71
2023/05/21 11:50:58;;;;;;;15.02;5.60;;;;;;;;;;4996382;28;20049;-71
2023/05/21 11:53:25;;;;;;;16.30;5.82;;;;;;;;;;4969331;28;20078;-71
2023/05/21 11:55:56;;;;;;;11.13;4.90;;;;;;;;;;4959689;28;20058;-72
2023/05/21 11:58:24;;;;;;;16.42;5.70;;;;;;;;;;4995653;28;20067;-72
2023/05/21 12:01:00;;;;;;;13.02;5.70;;;;;;;;;;5017031;28;20057;-73
2023/05/21 12:03:32;;;;;;;18.55;5.28;;;;;;;;;;4974420;28;20050;-73
2023/05/21 12:06:16;;;;;;;11.57;6.65;;;;;;;;;;4976656;28;20144;-73
2023/05/21 12:08:45;;;;;;;19.20;5.55;;;;;;;;;;4987447;28;20140;-73
2023/05/21 12:14:24;;;;;;;10.75;5.47;;;;;;;;;;4966483;28;20081;-72
2023/05/21 12:24:10;;;;;;;13.63;4.55;;;;;;;;;;5011767;28;20044;-73
2023/05/21 12:26:37;;;;;;;9.15;4.72;;;;;;;;;;5001267;28;20061;-73
2023/05/21 12:29:07;;;;;;;13.48;5.78;;;;;;;;;;4995965;28;20138;-74
2023/05/21 12:31:48;;;;;;;18.48;5.43;;;;;;;;;;5003675;28;20061;-72
2023/05/21 12:34:32;;;;;;;11.65;5.10;;;;;;;;;;4994302;28;20049;-71
2023/05/21 12:36:59;;;;;;;9.50;4.95;;;;;;;;;;4996322;28;20068;-71
2023/05/21 12:39:29;;;;;;;12.32;6.00;;;;;;;;;;4988629;28;20346;-71
2023/05/21 12:41:58;;;;;;;11.02;5.25;;;;;;;;;;5002454;28;20089;-71
2023/05/21 12:44:29;;;;;;;9.80;4.22;;;;;;;;;;4997544;28;20061;-71
2023/05/21 12:46:57;;;;;;;10.35;5.03;;;;;;;;;;5002664;28;20252;-71
2023/05/21 12:49:23;;;;;;;;;;;;;;;;;;4982451;28;20177;-71
2023/05/21 12:51:50;;;;;;;12.50;5.80;;;;;;;;;;5005920;28;20016;-71
2023/05/21 12:54:17;;;;;;;8.35;4.70;;;;;;;;;;4996797;28;20053;-71
2023/05/21 12:56:44;;;;;;;10.57;4.30;;;;;;;;;;5001127;28;20049;-71
2023/05/21 12:59:15;;;;;;;10.27;4.60;;;;;;;;;;4994796;28;20049;-71
2023/05/21 13:01:42;;;;;;;8.98;4.40;;;;;;;;;;5018439;28;20049;-71
2023/05/21 13:04:09;;;;;;;10.20;4.75;;;;;;;;;;4980852;28;20080;-71
2023/05/21 13:06:42;;;;;;;9.68;4.32;;;;;;;;;;4981772;28;20120;-71
2023/05/21 13:09:11;;;;;;;10.65;4.95;;;;;;;;;;4977540;28;20160;-71
2023/05/21 13:11:38;;;;;;;11.45;5.15;;;;;;;;;;4994493;28;20050;-73
2023/05/21 13:14:04;;;;;;;13.48;5.43;;;;;;;;;;4979439;28;20056;-74
2023/05/21 13:16:33;;;;;;;9.55;4.68;;;;;;;;;;4999639;28;20061;-73
2023/05/21 13:19:00;;;;;;;10.15;5.05;;;;;;;;;;5000913;28;20164;-74
2023/05/21 13:21:29;;;;;;;9.77;4.18;;;;;;;;;;4993194;28;20064;-74
2023/05/21 13:23:55;;;;;;;8.40;4.32;;;;;;;;;;5000970;28;20053;-74
2023/05/21 13:26:25;;;;;;;11.20;5.45;;;;;;;;;;4998135;28;20045;-74
2023/05/21 13:28:51;;;;;;;8.68;4.18;;;;;;;;;;5000356;28;20061;-74
2023/05/21 13:31:18;;;;;;;11.07;4.65;;;;;;;;;;4989891;28;20064;-74
2023/05/21 13:33:45;;;;;;;9.20;4.70;;;;;;;;;;4995140;28;20172;-73
2023/05/21 13:36:11;;;;;;;10.23;4.07;;;;;;;;;;4984277;28;20219;-74
2023/05/21 13:38:40;;;;;;;9.95;4.38;;;;;;;;;;5000091;28;20057;-73
2023/05/21 13:41:06;;;;;;;;;;;;;;;;;;4996797;28;20113;-73
2023/05/21 13:43:33;;;;;;;14.80;5.68;;;;;;;;;;4998943;28;19931;-73
2023/05/21 13:46:03;;;;;;;8.95;4.13;;;;;;;;;;4979832;28;20051;-73
2023/05/21 13:48:31;;;;;;;8.30;4.32;;;;;;;;;;5001542;28;20049;-73
2023/05/21 13:50:57;;;;;;;;;;;;;;;;;;4997076;28;20057;-73
2023/05/21 13:53:24;;;;;;;8.98;4.30;;;;;;;;;;4996630;28;19925;-72
2023/05/21 13:55:52;;;;;;;9.23;4.45;;;;;;;;;;4993102;28;20068;-73
2023/05/21 13:58:19;;;;;;;11.38;4.88;;;;;;;;;;5000032;28;20057;-72
2023/05/21 14:00:48;;;;;;;11.93;5.68;;;;;;;;;;5000089;28;20061;-73
2023/05/21 14:03:20;;;;;;;10.32;5.50;;;;;;;;;;4982019;28;20054;-70
2023/05/21 14:05:50;;;;;;;13.15;4.00;;;;;;;;;;4980513;28;20120;-71
2023/05/21 14:08:19;;;;;;;8.07;4.53;;;;;;;;;;5004123;28;20116;-71
2023/05/21 14:10:46;;;;;;;10.05;4.20;;;;;;;;;;4979694;28;20117;-71
2023/05/21 14:13:14;;;;;;;11.35;5.32;;;;;;;;;;4990723;28;20066;-71
2023/05/21 14:15:49;;;;;;;12.13;5.78;;;;;;;;;;4977875;28;20117;-71
2023/05/21 14:18:15;;;;;;;13.27;5.03;;;;;;;;;;4989733;28;20065;-73
2023/05/21 14:20:42;;;;;;;9.23;4.13;;;;;;;;;;4999579;28;20053;-73
2023/05/21 14:23:13;;;;;;;13.00;5.82;;;;;;;;;;4992187;28;20057;-73
2023/05/21 14:25:41;;;;;;;9.30;5.07;;;;;;;;;;4983974;28;20081;-72
2023/05/21 14:28:15;;;;;;;10.85;5.28;;;;;;;;;;4996309;28;20083;-71
2023/05/21 14:30:41;;;;;;;8.00;4.00;;;;;;;;;;5001015;28;20057;-72
2023/05/21 14:33:08;;;;;;;9.82;4.70;;;;;;;;;;4976139;28;20062;-73
2023/05/21 14:35:34;;;;;;;12.82;5.88;;;;;;;;;;4992803;28;20061;-72
2023/05/21 14:38:01;;;;;;;12.20;4.22;;;;;;;;;;4982394;28;20045;-71
2023/05/21 14:40:27;;;;;;;14.23;5.28;;;;;;;;;;5005632;28;20067;-72
2023/05/21 14:42:54;;;;;;;27.45;13.98;;;;;;;;;;4995449;28;20152;-72
2023/05/21 14:45:23;;;;;;;10.15;5.43;;;;;;;;;;4984959;28;20179;-72
2023/05/21 14:47:49;;;;;;;;;;;;;;;;;;4979993;28;20064;-71
2023/05/21 14:50:17;;;;;;;13.60;4.75;;;;;;;;;;5016826;28;19925;-71
2023/05/21 14:52:43;;;;;;;11.68;5.65;;;;;;;;;;4999116;28;20083;-71
2023/05/21 14:55:15;;;;;;;9.68;4.88;;;;;;;;;;4989191;28;20064;-71
2023/05/21 14:57:42;;;;;;;12.25;6.72;;;;;;;;;;5000523;28;20049;-73
2023/05/21 15:00:16;;;;;;;10.48;5.50;;;;;;;;;;4997334;28;20058;-73
2023/05/21 15:02:47;;;;;;;13.98;6.30;;;;;;;;;;4991597;28;20054;-72